Time;durP1;ratioP1;P1;durP2;ratioP2;P2;SDS_P1;SDS_P2;PMS_P1;PMS_P2;Temp;Humidity;BMP_temperature;BMP_pressure;BME280_temperature;BME280_humidity;BME280_pressure;Samples;Min_cycle;Max_cycle;Signal;HPM_P1;HPM_P2
2023/08/12 00:01:36;;;;;;;10.30;4.05;;;20.90;99.90;;;;;;5019892;28;20079;-65
2023/08/12 00:04:02;;;;;;;13.00;4.82;;;20.80;99.90;;;;;;5018904;28;20026;-66
2023/08/12 00:06:28;;;;;;;9.50;5.05;;;20.70;99.90;;;;;;5019762;28;20081;-66
2023/08/12 00:08:54;;;;;;;5.93;4.07;;;20.70;99.90;;;;;;5019905;28;20080;-66
2023/08/12 00:11:19;;;;;;;9.63;4.35;;;20.70;99.90;;;;;;5019647;28;20029;-66
2023/08/12 00:13:45;;;;;;;10.48;4.03;;;20.70;99.90;;;;;;5018857;28;20030;-66
2023/08/12 00:16:11;;;;;;;9.57;4.70;;;20.70;99.90;;;;;;5019800;28;20044;-66
2023/08/12 00:18:36;;;;;;;9.77;3.78;;;20.70;99.90;;;;;;5019019;28;20033;-66
2023/08/12 00:21:08;;;;;;;7.22;4.05;;;20.70;99.90;;;;;;5018810;28;20021;-66
2023/08/12 00:23:38;;;;;;;8.25;4.00;;;20.70;99.90;;;;;;5019599;28;20049;-66
2023/08/12 00:26:03;;;;;;;10.05;3.60;;;20.70;99.90;;;;;;5019813;28;20053;-66
2023/08/12 00:28:29;;;;;;;8.80;4.13;;;20.60;99.90;;;;;;5018398;28;20021;-66
2023/08/12 00:30:54;;;;;;;8.60;3.83;;;20.60;99.90;;;;;;5019213;28;20085;-66
2023/08/12 00:33:20;;;;;;;5.93;3.70;;;20.50;99.90;;;;;;5018688;28;20089;-66
2023/08/12 00:35:46;;;;;;;8.35;3.78;;;20.40;99.90;;;;;;5019269;28;20022;-66
2023/08/12 00:38:11;;;;;;;9.40;4.45;;;20.50;99.90;;;;;;5018547;28;20022;-66
2023/08/12 00:40:37;;;;;;;7.55;3.42;;;20.40;99.90;;;;;;5018609;28;20022;-66
2023/08/12 00:43:03;;;;;;;10.88;3.40;;;20.40;99.90;;;;;;5018254;28;20021;-66
2023/08/12 00:45:29;;;;;;;6.78;3.78;;;20.30;99.90;;;;;;5018196;28;20053;-66
2023/08/12 00:47:55;;;;;;;8.20;3.80;;;20.30;99.90;;;;;;5019034;28;20053;-66
2023/08/12 00:50:21;;;;;;;10.02;4.15;;;20.30;99.90;;;;;;5018395;28;20033;-66
2023/08/12 00:52:47;;;;;;;6.18;3.63;;;20.40;99.90;;;;;;5018412;28;20026;-67
2023/08/12 00:55:13;;;;;;;7.22;3.47;;;20.40;99.90;;;;;;5018103;28;20037;-67
2023/08/12 00:57:38;;;;;;;6.00;3.85;;;20.40;99.90;;;;;;5017696;28;20021;-67
2023/08/12 01:00:04;;;;;;;7.97;3.30;;;20.40;99.90;;;;;;5018276;28;20033;-67
2023/08/12 01:02:30;;;;;;;9.38;3.45;;;20.50;99.90;;;;;;5018005;28;20018;-67
2023/08/12 01:04:56;;;;;;;6.63;3.55;;;20.50;99.90;;;;;;5018145;28;20022;-67
2023/08/12 01:07:21;;;;;;;7.70;3.08;;;20.50;99.90;;;;;;5017617;28;20036;-67
2023/08/12 01:09:47;;;;;;;6.60;3.03;;;20.50;99.90;;;;;;5017665;28;20081;-67
2023/08/12 01:12:18;;;;;;;6.90;3.50;;;20.50;99.90;;;;;;5018073;28;20026;-67
2023/08/12 01:15:02;;;;;;;7.47;3.78;;;20.60;99.90;;;;;;5017140;28;20104;-67
2023/08/12 01:17:29;;;;;;;5.55;3.17;;;20.60;99.90;;;;;;5018408;28;20037;-67
2023/08/12 01:19:56;;;;;;;5.88;3.25;;;20.60;99.90;;;;;;5017585;28;20088;-67
2023/08/12 01:22:25;;;;;;;7.72;3.45;;;20.60;99.90;;;;;;5017526;28;20107;-67
2023/08/12 01:24:51;;;;;;;8.07;3.45;;;20.60;99.90;;;;;;5017945;28;20026;-67
2023/08/12 01:27:16;;;;;;;8.10;4.43;;;20.60;99.90;;;;;;5017459;28;20032;-67
2023/08/12 01:29:46;;;;;;;6.30;3.00;;;20.60;99.90;;;;;;5017565;28;20018;-67
2023/08/12 01:32:34;;;;;;;7.47;3.45;;;20.60;99.90;;;;;;5018977;28;20014;-67
2023/08/12 01:35:29;;;;;;;4.68;3.28;;;20.60;99.90;;;;;;5017329;28;20072;-67
2023/08/12 01:37:58;;;;;;;4.10;3.05;;;20.60;99.90;;;;;;5018338;28;20017;-67
2023/08/12 01:40:24;;;;;;;6.80;3.22;;;20.60;99.90;;;;;;5017473;28;20022;-67
2023/08/12 01:42:51;;;;;;;5.32;3.17;;;20.70;99.90;;;;;;5017680;28;20025;-67
2023/08/12 01:45:18;;;;;;;5.65;3.28;;;20.80;99.90;;;;;;5018113;28;20076;-67
2023/08/12 01:47:44;;;;;;;5.80;3.75;;;20.80;99.90;;;;;;5018019;28;20022;-67
2023/08/12 01:50:10;;;;;;;6.10;3.20;;;20.80;99.90;;;;;;5017984;28;20026;-67
2023/08/12 01:52:36;;;;;;;6.18;3.85;;;20.80;99.90;;;;;;5016920;28;20025;-67
2023/08/12 01:55:01;;;;;;;7.07;4.13;;;20.80;99.90;;;;;;5017091;28;20052;-67
2023/08/12 01:57:27;;;;;;;11.18;4.78;;;20.80;99.90;;;;;;5016966;28;20025;-67
2023/08/12 01:59:52;;;;;;;11.63;5.28;;;20.70;99.90;;;;;;5017812;28;20018;-67
2023/08/12 02:02:18;;;;;;;9.35;4.53;;;20.80;99.90;;;;;;5017176;28;20022;-67
2023/08/12 02:04:44;;;;;;;12.45;4.40;;;20.80;99.90;;;;;;5017744;28;20061;-67
2023/08/12 02:07:10;;;;;;;7.45;4.80;;;20.80;99.90;;;;;;5016640;28;20030;-67
2023/08/12 02:09:35;;;;;;;9.25;4.47;;;20.90;99.90;;;;;;5040823;22;20057;-66
2023/08/12 02:12:01;;;;;;;10.25;4.65;;;21.00;99.90;;;;;;5016775;28;20119;-66
2023/08/12 02:14:26;;;;;;;9.98;4.30;;;21.00;99.90;;;;;;5016838;28;20033;-66
2023/08/12 02:16:52;;;;;;;9.90;4.85;;;20.80;99.90;;;;;;5016540;28;20080;-66
2023/08/12 02:19:17;;;;;;;9.13;4.47;;;20.80;99.90;;;;;;5016971;28;20022;-66
2023/08/12 02:21:44;;;;;;;9.35;4.35;;;20.70;99.90;;;;;;5017716;28;20022;-66
2023/08/12 02:24:09;;;;;;;10.18;5.15;;;20.70;99.90;;;;;;5016542;28;20018;-66
2023/08/12 02:26:35;;;;;;;7.32;4.07;;;20.60;99.90;;;;;;5015795;28;20026;-66
2023/08/12 02:29:01;;;;;;;15.10;4.95;;;20.60;99.90;;;;;;5016282;28;20057;-66
2023/08/12 02:31:26;;;;;;;9.07;4.70;;;20.40;99.90;;;;;;5017900;28;20030;-66
2023/08/12 02:33:52;;;;;;;7.95;4.90;;;20.40;99.90;;;;;;5017458;28;20049;-66
2023/08/12 02:36:17;;;;;;;13.32;5.35;;;20.50;99.90;;;;;;5016792;28;20033;-66
2023/08/12 02:38:43;;;;;;;12.05;5.32;;;20.50;99.90;;;;;;5016296;28;20022;-66
2023/08/12 02:41:09;;;;;;;11.63;4.80;;;20.60;99.90;;;;;;5016731;28;20018;-66
2023/08/12 02:43:35;;;;;;;15.20;5.20;;;20.70;99.90;;;;;;5016373;28;20022;-66
2023/08/12 02:46:00;;;;;;;13.70;5.70;;;20.90;99.90;;;;;;5016335;28;20018;-66
2023/08/12 02:48:26;;;;;;;14.82;4.45;;;20.90;99.90;;;;;;5016771;28;20026;-66
2023/08/12 02:50:51;;;;;;;9.50;3.97;;;21.00;99.90;;;;;;5016311;28;20018;-66
2023/08/12 02:53:17;;;;;;;7.18;3.95;;;20.90;99.90;;;;;;5016526;28;20022;-66
2023/08/12 02:55:44;;;;;;;6.63;4.80;;;20.80;99.90;;;;;;5016433;28;20022;-66
2023/08/12 02:58:10;;;;;;;8.20;4.57;;;20.80;99.90;;;;;;5017189;28;20029;-66
2023/08/12 03:00:36;;;;;;;9.60;4.88;;;20.80;99.90;;;;;;5016540;28;20022;-66
2023/08/12 03:03:01;;;;;;;9.23;3.88;;;20.80;99.90;;;;;;5016421;28;20083;-66
2023/08/12 03:05:27;;;;;;;7.80;4.53;;;20.90;99.90;;;;;;5016297;28;20064;-66
2023/08/12 03:07:52;;;;;;;8.20;4.15;;;21.00;99.90;;;;;;5016115;28;20112;-66
2023/08/12 03:10:18;;;;;;;8.38;4.70;;;21.00;99.90;;;;;;5016233;28;20025;-66
2023/08/12 03:12:43;;;;;;;9.38;4.88;;;21.20;99.90;;;;;;5017319;28;20092;-66
2023/08/12 03:15:11;;;;;;;6.75;4.15;;;21.20;99.90;;;;;;5016095;28;20032;-66
2023/08/12 03:17:38;;;;;;;10.45;5.25;;;21.10;99.90;;;;;;5015940;28;20026;-66
2023/08/12 03:20:05;;;;;;;7.13;4.15;;;21.00;99.90;;;;;;5016927;28;20101;-66
2023/08/12 03:22:31;;;;;;;8.38;4.18;;;20.90;99.90;;;;;;5017325;28;20040;-66
2023/08/12 03:24:56;;;;;;;9.02;4.50;;;20.90;99.90;;;;;;5015925;28;20018;-66
2023/08/12 03:27:22;;;;;;;7.75;5.07;;;20.90;99.90;;;;;;5015940;28;20125;-66
2023/08/12 03:29:47;;;;;;;9.93;5.32;;;20.90;99.90;;;;;;5015928;28;20038;-66
2023/08/12 03:32:13;;;;;;;10.75;5.90;;;20.90;99.90;;;;;;5017003;28;20077;-66
2023/08/12 03:34:38;;;;;;;14.48;6.00;;;20.80;99.90;;;;;;5015952;28;20029;-66
2023/08/12 03:37:04;;;;;;;9.95;5.47;;;20.70;99.90;;;;;;5016000;28;20022;-66
2023/08/12 03:39:30;;;;;;;9.20;5.57;;;20.60;99.90;;;;;;5019614;28;20029;-66
2023/08/12 03:41:56;;;;;;;9.70;5.72;;;20.60;99.90;;;;;;5019613;28;20022;-66
2023/08/12 03:44:21;;;;;;;7.85;5.63;;;20.70;99.90;;;;;;5019879;28;20052;-66
2023/08/12 03:46:50;;;;;;;8.82;5.05;;;20.50;99.90;;;;;;5019990;28;20049;-66
2023/08/12 03:49:15;;;;;;;10.15;4.97;;;20.50;99.90;;;;;;5019521;28;20026;-66
2023/08/12 03:51:41;;;;;;;17.35;5.80;;;20.50;99.90;;;;;;5020512;28;20037;-66
2023/08/12 03:54:06;;;;;;;9.32;5.72;;;20.50;99.90;;;;;;5020139;28;20029;-66
2023/08/12 03:56:32;;;;;;;15.00;7.07;;;20.50;99.90;;;;;;5019070;28;20049;-66
2023/08/12 03:58:57;;;;;;;10.25;6.65;;;20.40;99.90;;;;;;5019056;28;20018;-66
2023/08/12 04:01:23;;;;;;;9.07;6.15;;;20.20;99.90;;;;;;5020168;28;20022;-66
2023/08/12 04:03:49;;;;;;;12.00;6.15;;;20.20;99.90;;;;;;5019418;28;20022;-66
2023/08/12 04:06:14;;;;;;;13.48;6.97;;;20.30;99.90;;;;;;5018977;28;20018;-66
2023/08/12 04:08:40;;;;;;;8.75;5.57;;;20.30;99.90;;;;;;5019024;28;20069;-66
2023/08/12 04:11:05;;;;;;;11.52;7.10;;;20.20;99.90;;;;;;5020106;28;20106;-66
2023/08/12 04:13:31;;;;;;;10.82;7.20;;;20.20;99.90;;;;;;5019296;28;20029;-66
2023/08/12 04:15:57;;;;;;;11.10;6.97;;;20.10;99.90;;;;;;5019292;28;20018;-66
2023/08/12 04:18:22;;;;;;;12.68;6.50;;;20.10;99.90;;;;;;5018645;28;20121;-66
2023/08/12 04:20:52;;;;;;;9.07;6.40;;;19.90;99.90;;;;;;5018822;28;20103;-66
2023/08/12 04:23:19;;;;;;;10.02;6.63;;;19.70;99.90;;;;;;5019584;28;20137;-66
2023/08/12 04:25:48;;;;;;;13.10;7.07;;;19.60;99.90;;;;;;5019629;28;20018;-66
2023/08/12 04:28:14;;;;;;;16.67;8.35;;;19.40;99.90;;;;;;5018956;28;20033;-66
2023/08/12 04:30:42;;;;;;;21.38;7.88;;;19.30;99.90;;;;;;5018825;28;20108;-66
2023/08/12 04:33:07;;;;;;;12.55;8.23;;;19.20;99.90;;;;;;5018523;28;20026;-66
2023/08/12 04:35:33;;;;;;;12.13;7.95;;;19.10;99.90;;;;;;5018493;28;20037;-66
2023/08/12 04:37:58;;;;;;;14.23;8.07;;;19.20;99.90;;;;;;5018182;28;20036;-66
2023/08/12 04:40:24;;;;;;;14.48;8.13;;;19.20;99.90;;;;;;5018353;28;20018;-66
2023/08/12 04:42:49;;;;;;;17.67;8.35;;;19.20;99.90;;;;;;5018367;28;20024;-66
2023/08/12 04:45:15;;;;;;;11.27;7.95;;;19.30;99.90;;;;;;5019367;28;20022;-66
2023/08/12 04:47:40;;;;;;;10.25;7.45;;;19.30;99.90;;;;;;5019092;28;20034;-65
2023/08/12 04:50:06;;;;;;;13.77;8.13;;;19.40;99.90;;;;;;5017681;28;20026;-66
2023/08/12 04:52:32;;;;;;;13.75;8.13;;;19.40;99.90;;;;;;5018159;28;20037;-66
2023/08/12 04:54:57;;;;;;;13.38;9.02;;;19.40;99.90;;;;;;5018334;28;20057;-66
2023/08/12 04:57:23;;;;;;;13.40;8.55;;;19.40;99.90;;;;;;5018329;28;20085;-66
2023/08/12 04:59:48;;;;;;;13.95;8.63;;;19.50;99.90;;;;;;5017891;28;20036;-66
2023/08/12 05:02:14;;;;;;;13.05;7.88;;;19.60;99.90;;;;;;5018901;28;20026;-66
2023/08/12 05:04:40;;;;;;;19.98;7.95;;;19.70;99.90;;;;;;5018287;28;20022;-66
2023/08/12 05:07:05;;;;;;;11.98;7.57;;;19.70;99.90;;;;;;5018748;28;20084;-66
2023/08/12 05:09:31;;;;;;;13.45;7.35;;;19.70;99.90;;;;;;5017646;28;20057;-65
2023/08/12 05:11:57;;;;;;;13.63;7.43;;;19.60;99.90;;;;;;5018965;28;20065;-66
2023/08/12 05:14:22;;;;;;;12.35;7.63;;;19.60;99.90;;;;;;5018366;28;20026;-66
2023/08/12 05:16:48;;;;;;;13.55;7.40;;;19.70;99.90;;;;;;5017776;28;20040;-66
2023/08/12 05:19:13;;;;;;;12.52;7.43;;;19.70;99.90;;;;;;5017565;28;20045;-66
2023/08/12 05:21:39;;;;;;;12.35;8.38;;;19.80;99.90;;;;;;5017766;28;20018;-66
2023/08/12 05:24:05;;;;;;;17.08;8.20;;;19.80;99.90;;;;;;5017474;28;20060;-66
2023/08/12 05:26:32;;;;;;;12.48;8.23;;;19.80;99.90;;;;;;5017692;28;20101;-66
2023/08/12 05:28:57;;;;;;;13.30;8.30;;;19.80;99.90;;;;;;5017435;28;20022;-66
2023/08/12 05:31:23;;;;;;;18.77;9.43;;;19.80;99.90;;;;;;5018382;28;20029;-66
2023/08/12 05:33:48;;;;;;;16.52;9.85;;;19.80;99.90;;;;;;5018595;28;20036;-66
2023/08/12 05:36:14;;;;;;;16.00;9.68;;;19.80;99.90;;;;;;5017144;28;20090;-65
2023/08/12 05:38:39;;;;;;;14.75;9.18;;;19.80;99.90;;;;;;5017339;28;20021;-66
2023/08/12 05:41:07;;;;;;;17.77;10.40;;;19.80;99.90;;;;;;5017424;28;20113;-66
2023/08/12 05:43:32;;;;;;;24.13;10.70;;;19.80;99.90;;;;;;5018147;28;20033;-66
2023/08/12 05:45:58;;;;;;;16.83;9.50;;;19.70;99.90;;;;;;5017417;28;20022;-66
2023/08/12 05:48:23;;;;;;;19.60;9.90;;;19.80;99.90;;;;;;5016926;28;20025;-66
2023/08/12 05:50:49;;;;;;;16.67;9.25;;;19.90;99.90;;;;;;5017136;28;20025;-66
2023/08/12 05:53:15;;;;;;;14.98;9.48;;;19.90;99.90;;;;;;5017978;28;20103;-66
2023/08/12 05:55:40;;;;;;;9.18;7.15;;;19.90;99.90;;;;;;5016982;28;20026;-66
2023/08/12 05:58:05;;;;;;;13.77;8.75;;;19.90;99.90;;;;;;5017709;28;20034;-66
2023/08/12 06:00:31;;;;;;;10.95;7.78;;;19.90;99.90;;;;;;5017677;28;20030;-66
2023/08/12 06:02:57;;;;;;;11.90;7.82;;;20.00;99.90;;;;;;5016679;28;20014;-66
2023/08/12 06:05:22;;;;;;;13.90;8.10;;;20.00;99.90;;;;;;5017064;28;20022;-66
2023/08/12 06:07:48;;;;;;;16.77;8.35;;;20.10;99.90;;;;;;5016836;28;20029;-66
2023/08/12 06:10:13;;;;;;;10.63;7.20;;;20.10;99.90;;;;;;5017646;28;20037;-66
2023/08/12 06:12:39;;;;;;;14.23;8.20;;;20.10;99.90;;;;;;5016689;28;20030;-65
2023/08/12 06:15:05;;;;;;;12.27;7.97;;;20.10;99.90;;;;;;5017578;28;20033;-65
2023/08/12 06:17:30;;;;;;;14.40;8.73;;;20.10;99.90;;;;;;5017573;28;20032;-66
2023/08/12 06:19:56;;;;;;;11.85;7.55;;;20.10;99.90;;;;;;5016599;28;20125;-66
2023/08/12 06:22:21;;;;;;;16.98;8.38;;;20.10;99.90;;;;;;5016900;28;20076;-66
2023/08/12 06:24:47;;;;;;;16.15;7.93;;;20.10;99.90;;;;;;5016673;28;20054;-66
2023/08/12 06:27:12;;;;;;;9.25;5.70;;;20.20;99.90;;;;;;5017401;28;20034;-66
2023/08/12 06:29:38;;;;;;;12.38;7.63;;;20.30;99.90;;;;;;5016443;28;20091;-66
2023/08/12 06:32:03;;;;;;;9.38;6.72;;;20.50;99.90;;;;;;5017709;28;20038;-66
2023/08/12 06:34:29;;;;;;;12.80;7.72;;;20.50;99.90;;;;;;5017122;28;20060;-66
2023/08/12 06:36:54;;;;;;;13.15;7.10;;;20.70;99.90;;;;;;5016376;28;20029;-66
2023/08/12 06:39:20;;;;;;;9.18;7.00;;;20.80;99.90;;;;;;5016314;28;20030;-66
2023/08/12 06:41:45;;;;;;;9.57;7.38;;;20.80;99.90;;;;;;5016351;28;20093;-66
2023/08/12 06:44:11;;;;;;;12.25;6.88;;;20.80;99.90;;;;;;5016835;28;20091;-66
2023/08/12 06:46:36;;;;;;;13.07;6.57;;;20.80;99.90;;;;;;5016288;28;20033;-66
2023/08/12 06:49:02;;;;;;;17.25;8.20;;;20.80;99.90;;;;;;5016292;28;20034;-66
2023/08/12 06:51:27;;;;;;;12.38;8.13;;;20.80;99.90;;;;;;5017735;28;20037;-66
2023/08/12 06:53:53;;;;;;;14.98;8.88;;;20.80;99.90;;;;;;5016587;28;20030;-66
2023/08/12 06:56:18;;;;;;;11.57;7.22;;;20.70;99.90;;;;;;5016289;28;20036;-66
2023/08/12 06:58:44;;;;;;;12.05;7.88;;;20.80;99.90;;;;;;5016186;28;20030;-66
2023/08/12 07:01:09;;;;;;;13.82;7.80;;;21.00;99.90;;;;;;5017105;28;20025;-66
2023/08/12 07:03:35;;;;;;;16.13;8.90;;;21.20;99.90;;;;;;5016192;28;20022;-66
2023/08/12 07:06:00;;;;;;;13.90;8.32;;;21.30;99.90;;;;;;5016243;28;20045;-66
2023/08/12 07:08:27;;;;;;;11.05;7.03;;;21.20;99.90;;;;;;5016677;28;20030;-66
2023/08/12 07:10:52;;;;;;;12.00;7.57;;;21.20;99.90;;;;;;5016250;28;20037;-66
2023/08/12 07:13:18;;;;;;;13.05;8.40;;;21.40;99.90;;;;;;5016964;28;20026;-66
2023/08/12 07:15:43;;;;;;;11.77;8.50;;;21.50;99.90;;;;;;5020295;28;20029;-66
2023/08/12 07:18:09;;;;;;;17.08;8.45;;;21.50;99.90;;;;;;5020672;28;20026;-66
2023/08/12 07:20:34;;;;;;;12.77;7.95;;;21.60;99.90;;;;;;5019816;28;20022;-66
2023/08/12 07:23:00;;;;;;;16.13;9.95;;;21.50;99.90;;;;;;5019864;28;20022;-66
2023/08/12 07:25:25;;;;;;;14.57;9.50;;;21.50;99.90;;;;;;5019671;28;20026;-66
2023/08/12 07:27:51;;;;;;;15.52;9.43;;;21.50;99.90;;;;;;5019644;28;20033;-66
2023/08/12 07:30:17;;;;;;;15.85;9.93;;;21.50;99.90;;;;;;5020566;28;20022;-66
2023/08/12 07:32:42;;;;;;;13.30;9.30;;;21.50;99.90;;;;;;5020556;28;20068;-66
2023/08/12 07:35:08;;;;;;;11.73;8.02;;;21.60;99.90;;;;;;5020088;28;20030;-66
2023/08/12 07:37:33;;;;;;;11.98;8.90;;;21.60;99.90;;;;;;5020200;28;20108;-66
2023/08/12 07:39:59;;;;;;;12.32;8.55;;;21.50;99.90;;;;;;5019559;28;20018;-66
2023/08/12 07:42:25;;;;;;;10.63;7.68;;;21.60;99.90;;;;;;5020622;28;20021;-66
2023/08/12 07:44:50;;;;;;;14.45;8.65;;;21.70;99.90;;;;;;5019457;28;20029;-66
2023/08/12 07:47:16;;;;;;;14.75;8.60;;;21.80;99.90;;;;;;5019723;28;20022;-66
2023/08/12 07:49:43;;;;;;;14.50;8.77;;;21.90;99.90;;;;;;5019475;28;20040;-66
2023/08/12 07:52:08;;;;;;;13.38;9.27;;;22.00;99.90;;;;;;5019502;28;20026;-66
2023/08/12 07:54:34;;;;;;;16.05;8.68;;;21.80;99.90;;;;;;5020164;28;20030;-66
2023/08/12 07:56:59;;;;;;;17.48;9.73;;;21.90;99.90;;;;;;5019433;28;20171;-66
2023/08/12 07:59:25;;;;;;;13.98;9.30;;;21.90;99.90;;;;;;5019030;28;20053;-66
2023/08/12 08:01:51;;;;;;;14.18;8.93;;;21.80;99.90;;;;;;5019678;28;20104;-66
2023/08/12 08:04:17;;;;;;;16.55;9.63;;;21.90;99.90;;;;;;5019470;28;20026;-66
2023/08/12 08:06:42;;;;;;;12.07;8.82;;;21.80;99.90;;;;;;5019909;28;20058;-66
2023/08/12 08:09:08;;;;;;;12.10;8.73;;;22.00;99.90;;;;;;5019386;28;20065;-68
2023/08/12 08:11:34;;;;;;;14.35;8.73;;;22.00;99.90;;;;;;5019244;28;20053;-68
2023/08/12 08:13:59;;;;;;;15.70;10.32;;;21.90;99.90;;;;;;5019170;28;20026;-68
2023/08/12 08:16:25;;;;;;;13.15;8.32;;;21.80;99.90;;;;;;5018802;28;20037;-68
2023/08/12 08:18:50;;;;;;;13.00;9.07;;;21.80;99.90;;;;;;5019148;28;20026;-68
2023/08/12 08:21:16;;;;;;;15.07;9.25;;;21.80;99.90;;;;;;5018861;28;20084;-68
2023/08/12 08:23:42;;;;;;;12.48;8.80;;;21.90;99.90;;;;;;5018650;28;20033;-68
2023/08/12 08:26:09;;;;;;;16.48;10.70;;;21.80;99.90;;;;;;5019604;28;20030;-68
2023/08/12 08:28:34;;;;;;;16.48;11.15;;;21.70;99.90;;;;;;5019330;28;20105;-68
2023/08/12 08:31:00;;;;;;;12.73;8.82;;;21.50;99.90;;;;;;5018436;28;20116;-68
2023/08/12 08:33:26;;;;;;;18.98;11.95;;;21.60;99.90;;;;;;5018569;28;20037;-68
2023/08/12 08:35:52;;;;;;;17.98;11.43;;;21.40;99.90;;;;;;5019242;28;20087;-68
2023/08/12 08:38:17;;;;;;;19.73;12.15;;;21.30;99.90;;;;;;5018683;28;20026;-68
2023/08/12 08:40:43;;;;;;;19.45;12.55;;;21.20;99.90;;;;;;5018316;28;20105;-68
2023/08/12 08:43:09;;;;;;;20.02;12.80;;;21.20;99.90;;;;;;5018339;28;20028;-68
2023/08/12 08:45:36;;;;;;;20.27;13.32;;;21.10;99.90;;;;;;5018299;28;20026;-68
2023/08/12 08:48:02;;;;;;;16.75;12.70;;;21.10;99.90;;;;;;5019050;28;20109;-67
2023/08/12 08:50:30;;;;;;;21.00;12.77;;;21.10;99.90;;;;;;5018263;28;20083;-68
2023/08/12 08:52:56;;;;;;;19.40;13.30;;;21.10;99.90;;;;;;5019027;28;20030;-68
2023/08/12 08:55:22;;;;;;;21.55;14.48;;;21.20;99.90;;;;;;5019040;28;20057;-67
2023/08/12 08:57:48;;;;;;;19.42;11.70;;;21.20;99.90;;;;;;5018168;28;20045;-67
2023/08/12 09:00:18;;;;;;;17.73;12.30;;;21.20;99.90;;;;;;5018041;28;20026;-68
2023/08/12 09:02:47;;;;;;;22.48;12.25;;;21.30;99.90;;;;;;5017986;28;20021;-67
2023/08/12 09:05:14;;;;;;;19.17;11.93;;;21.40;99.90;;;;;;5017956;28;20084;-68
2023/08/12 09:07:41;;;;;;;18.05;11.73;;;21.40;99.90;;;;;;5017692;28;20026;-67
2023/08/12 09:10:08;;;;;;;13.75;10.80;;;21.50;99.90;;;;;;5019281;28;20022;-68
2023/08/12 09:12:34;;;;;;;18.08;10.73;;;21.50;99.90;;;;;;5018123;28;20062;-68
2023/08/12 09:14:59;;;;;;;17.33;8.98;;;21.70;99.90;;;;;;5017882;28;20033;-68
2023/08/12 09:17:25;;;;;;;15.43;9.00;;;22.00;99.90;;;;;;5017573;28;20026;-68
2023/08/12 09:19:51;;;;;;;13.95;8.60;;;22.20;99.90;;;;;;5017652;28;20019;-68
2023/08/12 09:22:18;;;;;;;11.02;8.13;;;22.40;99.90;;;;;;5017638;28;20017;-68
2023/08/12 09:24:44;;;;;;;12.77;9.68;;;22.50;99.90;;;;;;5018506;28;20022;-68
2023/08/12 09:27:10;;;;;;;12.20;8.82;;;22.60;99.90;;;;;;5017528;28;20084;-68
2023/08/12 09:29:36;;;;;;;20.85;9.05;;;22.40;99.90;;;;;;5018922;28;20082;-67
2023/08/12 09:32:12;;;;;;;15.07;10.40;;;22.40;99.90;;;;;;5018323;28;20109;-67
2023/08/12 09:34:51;;;;;;;15.27;9.50;;;22.40;99.90;;;;;;5018252;28;20121;-67
2023/08/12 09:37:18;;;;;;;16.20;9.32;;;22.30;99.90;;;;;;5017831;28;20049;-67
2023/08/12 09:39:44;;;;;;;17.55;10.73;;;22.20;99.90;;;;;;5017543;28;20117;-67
2023/08/12 09:42:10;;;;;;;11.65;8.20;;;22.40;99.90;;;;;;5017306;28;20022;-68
2023/08/12 09:44:37;;;;;;;15.38;9.35;;;22.50;99.90;;;;;;5017371;28;20018;-68
2023/08/12 09:47:03;;;;;;;12.65;8.55;;;22.50;99.90;;;;;;5018400;28;20026;-68
2023/08/12 09:49:28;;;;;;;11.82;7.68;;;22.60;99.90;;;;;;5017820;28;20057;-68
2023/08/12 09:51:55;;;;;;;14.07;8.50;;;22.70;99.90;;;;;;5017040;28;20026;-68
2023/08/12 09:54:21;;;;;;;14.73;8.55;;;22.70;99.90;;;;;;5017636;28;20097;-68
2023/08/12 09:56:48;;;;;;;11.63;8.68;;;22.80;99.90;;;;;;5016856;28;20080;-68
2023/08/12 09:59:22;;;;;;;12.50;8.35;;;22.90;99.90;;;;;;5018121;28;20164;-68
2023/08/12 10:01:52;;;;;;;12.82;8.38;;;23.00;99.90;;;;;;5016893;28;20033;-68
2023/08/12 10:04:20;;;;;;;10.95;7.93;;;23.20;99.90;;;;;;5017059;28;20029;-67
2023/08/12 10:06:47;;;;;;;13.38;9.00;;;23.30;99.90;;;;;;5017907;28;20069;-67
2023/08/12 10:09:15;;;;;;;12.02;7.43;;;23.50;99.90;;;;;;5017514;28;20048;-68
2023/08/12 10:11:43;;;;;;;16.20;7.70;;;23.60;99.90;;;;;;5016879;28;20030;-68
2023/08/12 10:14:10;;;;;;;11.70;7.15;;;23.50;99.90;;;;;;5017616;28;20053;-68
2023/08/12 10:16:36;;;;;;;9.93;7.03;;;23.50;99.90;;;;;;5017395;28;20036;-68
2023/08/12 10:19:04;;;;;;;9.07;6.43;;;23.60;99.90;;;;;;5016829;28;20122;-68
2023/08/12 10:21:30;;;;;;;8.77;6.90;;;23.80;99.90;;;;;;5017552;28;20077;-68
2023/08/12 10:23:58;;;;;;;12.90;8.13;;;23.60;99.90;;;;;;5016788;28;20018;-68
2023/08/12 10:26:25;;;;;;;12.82;8.27;;;23.70;99.90;;;;;;5016662;28;20022;-68
2023/08/12 10:28:51;;;;;;;14.32;8.85;;;23.70;99.90;;;;;;5016661;28;20117;-68
2023/08/12 10:31:18;;;;;;;13.48;8.45;;;23.50;99.90;;;;;;5017450;28;20049;-68
2023/08/12 10:33:44;;;;;;;10.50;7.50;;;23.60;99.90;;;;;;5016454;28;20021;-68
2023/08/12 10:36:10;;;;;;;9.43;7.18;;;23.60;99.90;;;;;;5016669;28;20021;-68
2023/08/12 10:38:36;;;;;;;10.32;6.72;;;23.70;99.90;;;;;;5016235;28;20030;-68
2023/08/12 10:41:17;;;;;;;11.05;7.47;;;23.80;99.90;;;;;;5016453;28;20114;-68
2023/08/12 10:43:51;;;;;;;9.77;6.85;;;23.90;99.90;;;;;;5016629;28;20025;-68
2023/08/12 10:46:30;;;;;;;8.35;7.22;;;23.80;99.90;;;;;;5016728;28;20026;-68
2023/08/12 10:49:07;;;;;;;9.30;7.13;;;23.80;99.90;;;;;;5019341;28;20025;-68
2023/08/12 10:51:45;;;;;;;12.40;7.53;;;23.80;99.90;;;;;;5020395;28;20029;-67
2023/08/12 10:54:26;;;;;;;12.48;7.82;;;23.70;99.90;;;;;;5020332;28;20105;-68
2023/08/12 10:57:11;;;;;;;12.20;7.38;;;23.70;99.90;;;;;;5021186;28;20026;-68
2023/08/12 10:59:45;;;;;;;8.05;6.43;;;23.70;99.90;;;;;;5020563;28;20055;-68
2023/08/12 11:02:21;;;;;;;9.90;6.88;;;23.50;99.90;;;;;;5020355;28;20029;-68
2023/08/12 11:05:00;;;;;;;7.97;4.32;;;23.60;99.90;;;;;;5020182;28;20113;-68
2023/08/12 11:07:37;;;;;;;6.00;4.20;;;23.60;99.90;;;;;;5020234;28;20034;-68
2023/08/12 11:10:07;;;;;;;6.47;3.65;;;23.60;99.90;;;;;;5021311;28;20042;-68
2023/08/12 11:12:34;;;;;;;4.97;3.15;;;23.50;99.90;;;;;;5020900;28;20080;-68
2023/08/12 11:15:01;;;;;;;4.05;2.85;;;23.50;99.90;;;;;;5020193;28;20072;-68
2023/08/12 11:17:41;;;;;;;5.72;2.60;;;23.40;99.90;;;;;;5019929;28;20037;-68
2023/08/12 11:20:10;;;;;;;3.45;2.83;;;23.40;99.90;;;;;;5021191;28;20022;-68
2023/08/12 11:22:37;;;;;;;3.92;2.92;;;23.30;99.90;;;;;;5020591;28;20026;-68
2023/08/12 11:25:09;;;;;;;4.90;3.10;;;23.20;99.90;;;;;;5019736;28;20117;-68
2023/08/12 11:27:43;;;;;;;3.95;2.88;;;23.00;99.90;;;;;;5020868;28;20026;-68
2023/08/12 11:30:15;;;;;;;3.55;3.25;;;23.00;99.90;;;;;;5019810;28;20022;-68
2023/08/12 11:32:42;;;;;;;4.43;2.95;;;22.90;99.90;;;;;;5019927;28;20026;-68
2023/08/12 11:35:08;;;;;;;5.72;3.10;;;22.80;99.90;;;;;;5020422;28;20118;-68
2023/08/12 11:37:38;;;;;;;5.90;3.38;;;22.70;99.90;;;;;;5019480;28;20061;-67
2023/08/12 11:40:06;;;;;;;4.85;3.13;;;22.70;99.90;;;;;;5019643;28;20029;-66
2023/08/12 11:42:31;;;;;;;5.53;2.78;;;22.80;99.90;;;;;;5019600;28;20022;-66
2023/08/12 11:44:57;;;;;;;4.28;2.88;;;23.00;99.90;;;;;;5020308;28;20030;-68
2023/08/12 11:47:23;;;;;;;3.20;2.72;;;23.30;99.90;;;;;;5019441;28;20037;-66
2023/08/12 11:49:49;;;;;;;4.97;3.40;;;23.50;99.90;;;;;;5020362;28;20099;-67
2023/08/12 11:52:14;;;;;;;5.85;2.47;;;24.30;99.90;;;;;;5020188;28;20080;-66
2023/08/12 11:54:40;;;;;;;5.18;2.45;;;25.50;99.90;;;;;;5019274;28;20026;-66
2023/08/12 11:57:06;;;;;;;3.63;3.25;;;26.00;99.90;;;;;;5020110;28;20025;-66
2023/08/12 11:59:31;;;;;;;5.65;2.90;;;26.80;99.90;;;;;;5019123;28;20021;-67
2023/08/12 12:01:57;;;;;;;3.13;2.80;;;28.00;99.90;;;;;;5019460;28;20076;-67
2023/08/12 12:04:23;;;;;;;6.35;2.40;;;29.50;99.90;;;;;;5019046;28;20033;-68
2023/08/12 12:06:49;;;;;;;2.72;2.28;;;30.00;99.90;;;;;;5019271;28;20072;-67
2023/08/12 12:09:17;;;;;;;3.47;2.47;;;29.60;99.90;;;;;;5019237;28;20037;-67
2023/08/12 12:11:44;;;;;;;4.75;2.30;;;29.00;99.90;;;;;;5019906;28;20022;-67
2023/08/12 12:14:10;;;;;;;8.57;2.72;;;28.30;99.90;;;;;;5019166;28;20022;-67
2023/08/12 12:16:41;;;;;;;2.58;1.92;;;27.80;99.90;;;;;;5019623;28;20022;-66
2023/08/12 12:19:27;;;;;;;5.28;2.88;;;27.30;99.90;;;;;;5019005;28;20033;-67
2023/08/12 12:21:53;;;;;;;5.53;2.28;;;26.80;99.90;;;;;;5018722;28;20041;-66
2023/08/12 12:24:20;;;;;;;6.95;2.40;;;26.40;99.90;;;;;;5019672;28;20056;-66
2023/08/12 12:26:46;;;;;;;3.20;2.05;;;26.10;99.90;;;;;;5019615;28;20029;-66
2023/08/12 12:29:13;;;;;;;3.08;2.22;;;26.00;99.90;;;;;;5018552;28;20061;-66
2023/08/12 12:31:39;;;;;;;5.20;2.80;;;26.10;99.90;;;;;;5019392;28;20053;-66
2023/08/12 12:34:06;;;;;;;4.32;2.45;;;26.20;99.90;;;;;;5020193;28;20048;-67
2023/08/12 12:36:36;;;;;;;3.05;2.35;;;26.40;99.90;;;;;;5019292;28;20026;-66
2023/08/12 12:39:02;;;;;;;3.60;2.80;;;26.40;99.90;;;;;;5019548;28;20021;-66